sensor_id;sensor_type;location;lat;lon;timestamp;pressure;altitude;pressure_sealevel;temperature;humidity
3524;BME280;1776;53.330;11.498;2022-11-12T00:02:15;54078.38;;;-147.39;66.47
3524;BME280;1776;53.330;11.498;2022-11-12T00:04:40;54090.66;;;-147.39;66.28
3524;BME280;1776;53.330;11.498;2022-11-12T00:07:05;54070.19;;;-147.39;66.29
3524;BME280;1776;53.330;11.498;2022-11-12T00:09:31;54053.78;;;-147.39;66.18
3524;BME280;1776;53.330;11.498;2022-11-12T00:11:56;54201.31;;;-147.39;66.78
3524;BME280;1776;53.330;11.498;2022-11-12T00:14:21;54076.31;;;-147.39;66.38
3524;BME280;1776;53.330;11.498;2022-11-12T00:16:47;54119.34;;;-147.39;66.42
3524;BME280;1776;53.330;11.498;2022-11-12T00:19:12;54109.09;;;-147.39;66.40
3524;BME280;1776;53.330;11.498;2022-11-12T00:21:37;54096.81;;;-147.39;66.15
3524;BME280;1776;53.330;11.498;2022-11-12T00:24:02;54096.81;;;-147.39;66.06
3524;BME280;1776;53.330;11.498;2022-11-12T00:26:28;54074.28;;;-147.39;66.24
3524;BME280;1776;53.330;11.498;2022-11-12T00:28:54;54105.00;;;-147.39;65.95
3524;BME280;1776;53.330;11.498;2022-11-12T00:31:19;54133.69;;;-147.39;66.10
3524;BME280;1776;53.330;11.498;2022-11-12T00:33:45;54107.06;;;-147.39;66.00
3524;BME280;1776;53.330;11.498;2022-11-12T00:36:10;54113.19;;;-147.39;66.37
3524;BME280;1776;53.330;11.498;2022-11-12T00:38:36;54092.72;;;-147.39;66.45
3524;BME280;1776;53.330;11.498;2022-11-12T00:41:01;54055.84;;;-147.39;66.58
3524;BME280;1776;53.330;11.498;2022-11-12T00:43:27;54088.63;;;-147.39;66.54
3524;BME280;1776;53.330;11.498;2022-11-12T00:45:52;54088.63;;;-147.39;66.59
3524;BME280;1776;53.330;11.498;2022-11-12T00:48:17;54211.56;;;-147.39;66.67
3524;BME280;1776;53.330;11.498;2022-11-12T00:50:43;54150.09;;;-147.39;66.62
3524;BME280;1776;53.330;11.498;2022-11-12T00:53:08;54086.56;;;-147.39;66.91
3524;BME280;1776;53.330;11.498;2022-11-12T00:55:33;54123.44;;;-147.39;66.74
3524;BME280;1776;53.330;11.498;2022-11-12T00:57:59;54094.75;;;-147.39;66.85
3524;BME280;1776;53.330;11.498;2022-11-12T01:00:24;54109.09;;;-147.39;66.62
3524;BME280;1776;53.330;11.498;2022-11-12T01:02:50;54145.97;;;-147.39;66.74
3524;BME280;1776;53.330;11.498;2022-11-12T01:05:15;54127.53;;;-147.39;66.56
3524;BME280;1776;53.330;11.498;2022-11-12T01:07:41;54107.06;;;-147.39;66.65
3524;BME280;1776;53.330;11.498;2022-11-12T01:10:07;54117.31;;;-147.39;66.65
3524;BME280;1776;53.330;11.498;2022-11-12T01:12:33;54131.66;;;-147.39;66.95
3524;BME280;1776;53.330;11.498;2022-11-12T01:14:58;54088.63;;;-147.39;67.36
3524;BME280;1776;53.330;11.498;2022-11-12T01:17:24;54102.97;;;-147.39;67.44
3524;BME280;1776;53.330;11.498;2022-11-12T01:19:49;54125.50;;;-147.39;67.21
3524;BME280;1776;53.330;11.498;2022-11-12T01:22:14;54070.19;;;-147.39;67.29
3524;BME280;1776;53.330;11.498;2022-11-12T01:24:40;54127.53;;;-147.39;67.63
3524;BME280;1776;53.330;11.498;2022-11-12T01:27:05;54084.53;;;-147.39;67.32
3524;BME280;1776;53.330;11.498;2022-11-12T01:29:30;54047.63;;;-147.39;67.20
3524;BME280;1776;53.330;11.498;2022-11-12T01:31:56;54098.84;;;-147.39;67.18
3524;BME280;1776;53.330;11.498;2022-11-12T01:34:21;54107.06;;;-147.39;67.16
3524;BME280;1776;53.330;11.498;2022-11-12T01:36:46;54115.25;;;-147.39;66.80
3524;BME280;1776;53.330;11.498;2022-11-12T01:39:12;54111.16;;;-147.39;67.31
3524;BME280;1776;53.330;11.498;2022-11-12T01:41:38;54162.38;;;-147.39;67.58
3524;BME280;1776;53.330;11.498;2022-11-12T01:44:21;54127.53;;;-147.39;67.58
3524;BME280;1776;53.330;11.498;2022-11-12T01:47:20;54115.25;;;-147.39;67.62
3524;BME280;1776;53.330;11.498;2022-11-12T01:49:52;54129.59;;;-147.39;67.75
3524;BME280;1776;53.330;11.498;2022-11-12T01:52:34;54133.69;;;-147.39;67.99
3524;BME280;1776;53.330;11.498;2022-11-12T01:55:04;54088.63;;;-147.39;68.10
3524;BME280;1776;53.330;11.498;2022-11-12T01:57:37;54119.34;;;-147.39;68.07
3524;BME280;1776;53.330;11.498;2022-11-12T02:00:07;54107.06;;;-147.39;68.08
3524;BME280;1776;53.330;11.498;2022-11-12T02:02:35;54141.88;;;-147.39;68.49
3524;BME280;1776;53.330;11.498;2022-11-12T02:05:02;54133.69;;;-147.39;68.38
3524;BME280;1776;53.330;11.498;2022-11-12T02:07:30;54082.47;;;-147.39;68.30
3524;BME280;1776;53.330;11.498;2022-11-12T02:09:57;54082.47;;;-147.39;68.43
3524;BME280;1776;53.330;11.498;2022-11-12T02:12:23;54086.56;;;-147.39;68.24
3524;BME280;1776;53.330;11.498;2022-11-12T02:15:08;54117.31;;;-147.39;68.47
3524;BME280;1776;53.330;11.498;2022-11-12T02:17:33;54117.31;;;-147.39;70.71
3524;BME280;1776;53.330;11.498;2022-11-12T02:19:59;54100.91;;;-147.39;71.74
3524;BME280;1776;53.330;11.498;2022-11-12T02:22:24;54141.88;;;-147.39;71.56
3524;BME280;1776;53.330;11.498;2022-11-12T02:24:50;54098.84;;;-147.39;71.98
3524;BME280;1776;53.330;11.498;2022-11-12T02:27:15;54256.63;;;-147.39;72.06
3524;BME280;1776;53.330;11.498;2022-11-12T02:29:40;54096.81;;;-147.39;72.54
3524;BME280;1776;53.330;11.498;2022-11-12T02:32:11;54133.69;;;-147.39;73.74
3524;BME280;1776;53.330;11.498;2022-11-12T02:34:37;54090.66;;;-147.39;74.08
3524;BME280;1776;53.330;11.498;2022-11-12T02:37:04;54129.59;;;-147.39;74.88
3524;BME280;1776;53.330;11.498;2022-11-12T02:39:29;54125.50;;;-147.39;75.26
3524;BME280;1776;53.330;11.498;2022-11-12T02:41:54;54105.00;;;-147.39;75.37
3524;BME280;1776;53.330;11.498;2022-11-12T02:44:19;54162.38;;;-147.39;76.10
3524;BME280;1776;53.330;11.498;2022-11-12T02:46:45;54078.38;;;-147.39;76.11
3524;BME280;1776;53.330;11.498;2022-11-12T02:49:10;54115.25;;;-147.39;76.38
3524;BME280;1776;53.330;11.498;2022-11-12T02:51:35;54121.41;;;-147.39;76.76
3524;BME280;1776;53.330;11.498;2022-11-12T02:54:01;54094.75;;;-147.39;76.59
3524;BME280;1776;53.330;11.498;2022-11-12T02:56:26;54123.44;;;-147.39;76.45
3524;BME280;1776;53.330;11.498;2022-11-12T02:58:51;54121.41;;;-147.39;75.89
3524;BME280;1776;53.330;11.498;2022-11-12T03:01:16;54107.06;;;-147.39;76.42
3524;BME280;1776;53.330;11.498;2022-11-12T03:03:42;54096.81;;;-147.39;75.98
3524;BME280;1776;53.330;11.498;2022-11-12T03:06:07;54096.81;;;-147.39;75.77
3524;BME280;1776;53.330;11.498;2022-11-12T03:08:32;54131.66;;;-147.39;75.54
3524;BME280;1776;53.330;11.498;2022-11-12T03:10:57;54115.25;;;-147.39;75.79
3524;BME280;1776;53.330;11.498;2022-11-12T03:13:23;54105.00;;;-147.39;75.09
3524;BME280;1776;53.330;11.498;2022-11-12T03:15:48;54131.66;;;-147.39;75.14
3524;BME280;1776;53.330;11.498;2022-11-12T03:18:13;54180.81;;;-147.39;75.87
3524;BME280;1776;53.330;11.498;2022-11-12T03:20:39;54131.66;;;-147.39;75.48
3524;BME280;1776;53.330;11.498;2022-11-12T03:23:07;54092.72;;;-147.39;75.54
3524;BME280;1776;53.330;11.498;2022-11-12T03:25:34;54129.59;;;-147.39;75.27
3524;BME280;1776;53.330;11.498;2022-11-12T03:28:05;54127.53;;;-147.39;75.63
3524;BME280;1776;53.330;11.498;2022-11-12T03:30:33;54137.78;;;-147.39;75.83
3524;BME280;1776;53.330;11.498;2022-11-12T03:32:59;54109.09;;;-147.39;75.68
3524;BME280;1776;53.330;11.498;2022-11-12T03:35:24;54131.66;;;-147.39;75.66
3524;BME280;1776;53.330;11.498;2022-11-12T03:37:52;54127.53;;;-147.39;75.92
3524;BME280;1776;53.330;11.498;2022-11-12T03:40:18;54152.13;;;-147.39;75.46
3524;BME280;1776;53.330;11.498;2022-11-12T03:42:48;54123.44;;;-147.39;75.71
3524;BME280;1776;53.330;11.498;2022-11-12T03:45:15;54148.03;;;-147.39;76.31
3524;BME280;1776;53.330;11.498;2022-11-12T03:47:42;54121.41;;;-147.39;76.50
3524;BME280;1776;53.330;11.498;2022-11-12T03:50:07;54107.06;;;-147.39;76.44
3524;BME280;1776;53.330;11.498;2022-11-12T03:52:34;54123.44;;;-147.39;76.38
3524;BME280;1776;53.330;11.498;2022-11-12T03:54:59;54131.66;;;-147.39;76.27
3524;BME280;1776;53.330;11.498;2022-11-12T03:57:25;54125.50;;;-147.39;76.75
3524;BME280;1776;53.330;11.498;2022-11-12T03:59:50;54107.06;;;-147.39;76.47
3524;BME280;1776;53.330;11.498;2022-11-12T04:02:15;54131.66;;;-147.39;76.44
3524;BME280;1776;53.330;11.498;2022-11-12T04:04:40;54141.88;;;-147.39;76.50
3524;BME280;1776;53.330;11.498;2022-11-12T04:07:24;54121.41;;;-147.39;76.82
3524;BME280;1776;53.330;11.498;2022-11-12T04:10:08;54141.88;;;-147.39;76.43
3524;BME280;1776;53.330;11.498;2022-11-12T04:12:34;54139.84;;;-147.39;76.44
3524;BME280;1776;53.330;11.498;2022-11-12T04:15:17;54143.94;;;-147.39;76.54
3524;BME280;1776;53.330;11.498;2022-11-12T04:17:42;54127.53;;;-147.39;76.31
3524;BME280;1776;53.330;11.498;2022-11-12T04:20:26;54115.25;;;-147.39;76.10
3524;BME280;1776;53.330;11.498;2022-11-12T04:23:29;54145.97;;;-147.39;75.37
3524;BME280;1776;53.330;11.498;2022-11-12T04:25:55;54127.53;;;-147.39;75.65
3524;BME280;1776;53.330;11.498;2022-11-12T04:28:38;54129.59;;;-147.39;75.06
3524;BME280;1776;53.330;11.498;2022-11-12T04:31:04;54129.59;;;-147.39;75.25
3524;BME280;1776;53.330;11.498;2022-11-12T04:33:29;54145.97;;;-147.39;75.10
3524;BME280;1776;53.330;11.498;2022-11-12T04:35:54;54244.34;;;-147.39;74.76
3524;BME280;1776;53.330;11.498;2022-11-12T04:38:19;54111.16;;;-147.39;74.76
3524;BME280;1776;53.330;11.498;2022-11-12T04:40:45;54119.34;;;-147.39;74.63
3524;BME280;1776;53.330;11.498;2022-11-12T04:43:28;54117.31;;;-147.39;74.68
3524;BME280;1776;53.330;11.498;2022-11-12T04:46:12;54152.13;;;-147.39;74.49
3524;BME280;1776;53.330;11.498;2022-11-12T04:48:38;54129.59;;;-147.39;74.62
3524;BME280;1776;53.330;11.498;2022-11-12T04:51:04;54113.19;;;-147.39;74.12
3524;BME280;1776;53.330;11.498;2022-11-12T04:53:53;54123.44;;;-147.39;74.36
3524;BME280;1776;53.330;11.498;2022-11-12T04:56:18;54117.31;;;-147.39;74.07
3524;BME280;1776;53.330;11.498;2022-11-12T04:58:43;54129.59;;;-147.39;73.56
3524;BME280;1776;53.330;11.498;2022-11-12T05:01:09;54141.88;;;-147.39;73.75
3524;BME280;1776;53.330;11.498;2022-11-12T05:03:34;54096.81;;;-147.39;74.35
3524;BME280;1776;53.330;11.498;2022-11-12T05:06:04;54119.34;;;-147.39;74.02
3524;BME280;1776;53.330;11.498;2022-11-12T05:08:49;54148.03;;;-147.39;73.96
3524;BME280;1776;53.330;11.498;2022-11-12T05:11:15;54111.16;;;-147.39;73.76
3524;BME280;1776;53.330;11.498;2022-11-12T05:13:40;54137.78;;;-147.39;73.40
3524;BME280;1776;53.330;11.498;2022-11-12T05:16:05;54160.31;;;-147.39;73.62
3524;BME280;1776;53.330;11.498;2022-11-12T05:18:31;54119.34;;;-147.39;73.89
3524;BME280;1776;53.330;11.498;2022-11-12T05:20:56;54107.06;;;-147.39;73.27
3524;BME280;1776;53.330;11.498;2022-11-12T05:23:21;54129.59;;;-147.39;73.32
3524;BME280;1776;53.330;11.498;2022-11-12T05:25:46;54127.53;;;-147.39;73.54
3524;BME280;1776;53.330;11.498;2022-11-12T05:28:12;54137.78;;;-147.39;72.95
3524;BME280;1776;53.330;11.498;2022-11-12T05:30:37;54137.78;;;-147.39;72.35
3524;BME280;1776;53.330;11.498;2022-11-12T05:33:02;54119.34;;;-147.39;72.18
3524;BME280;1776;53.330;11.498;2022-11-12T05:35:27;54221.78;;;-147.39;71.96
3524;BME280;1776;53.330;11.498;2022-11-12T05:37:53;54178.75;;;-147.39;71.24
3524;BME280;1776;53.330;11.498;2022-11-12T05:40:18;54137.78;;;-147.39;71.34
3524;BME280;1776;53.330;11.498;2022-11-12T05:42:44;54117.31;;;-147.39;71.19
3524;BME280;1776;53.330;11.498;2022-11-12T05:45:09;54117.31;;;-147.39;71.13
3524;BME280;1776;53.330;11.498;2022-11-12T05:47:34;54109.09;;;-147.39;71.00
3524;BME280;1776;53.330;11.498;2022-11-12T05:50:00;54123.44;;;-147.39;71.21
3524;BME280;1776;53.330;11.498;2022-11-12T05:52:25;54135.75;;;-147.39;70.71
3524;BME280;1776;53.330;11.498;2022-11-12T05:54:50;54123.44;;;-147.39;70.79
3524;BME280;1776;53.330;11.498;2022-11-12T05:57:15;54125.50;;;-147.39;71.10
3524;BME280;1776;53.330;11.498;2022-11-12T05:59:41;54150.09;;;-147.39;71.27
3524;BME280;1776;53.330;11.498;2022-11-12T06:02:06;54182.88;;;-147.39;71.04
3524;BME280;1776;53.330;11.498;2022-11-12T06:04:31;54125.50;;;-147.39;71.01
3524;BME280;1776;53.330;11.498;2022-11-12T06:06:56;54109.09;;;-147.39;71.18
3524;BME280;1776;53.330;11.498;2022-11-12T06:09:22;54125.50;;;-147.39;71.35
3524;BME280;1776;53.330;11.498;2022-11-12T06:11:47;54137.78;;;-147.39;71.36
3524;BME280;1776;53.330;11.498;2022-11-12T06:14:12;54102.97;;;-147.39;70.85
3524;BME280;1776;53.330;11.498;2022-11-12T06:16:37;54119.34;;;-147.39;70.40
3524;BME280;1776;53.330;11.498;2022-11-12T06:19:03;54113.19;;;-147.39;70.55
3524;BME280;1776;53.330;11.498;2022-11-12T06:21:29;54115.25;;;-147.39;69.98
3524;BME280;1776;53.330;11.498;2022-11-12T06:23:56;54154.19;;;-147.39;69.84
3524;BME280;1776;53.330;11.498;2022-11-12T06:26:23;54109.09;;;-147.39;69.90
3524;BME280;1776;53.330;11.498;2022-11-12T06:28:50;54158.28;;;-147.39;70.07
3524;BME280;1776;53.330;11.498;2022-11-12T06:31:16;54105.00;;;-147.39;69.81
3524;BME280;1776;53.330;11.498;2022-11-12T06:33:42;54115.25;;;-147.39;70.71
3524;BME280;1776;53.330;11.498;2022-11-12T06:36:09;54133.69;;;-147.39;70.41
3524;BME280;1776;53.330;11.498;2022-11-12T06:38:37;54129.59;;;-147.39;70.77
3524;BME280;1776;53.330;11.498;2022-11-12T06:41:03;54141.88;;;-147.39;70.49
3524;BME280;1776;53.330;11.498;2022-11-12T06:43:30;54119.34;;;-147.39;70.28
3524;BME280;1776;53.330;11.498;2022-11-12T06:46:07;54125.50;;;-147.39;69.91
3524;BME280;1776;53.330;11.498;2022-11-12T06:48:33;54125.50;;;-147.39;69.92
3524;BME280;1776;53.330;11.498;2022-11-12T06:51:05;54152.13;;;-147.39;69.75
3524;BME280;1776;53.330;11.498;2022-11-12T06:53:30;54160.31;;;-147.39;69.81
3524;BME280;1776;53.330;11.498;2022-11-12T06:56:01;54109.09;;;-147.39;69.95
3524;BME280;1776;53.330;11.498;2022-11-12T06:58:26;54131.66;;;-147.39;69.80
3524;BME280;1776;53.330;11.498;2022-11-12T07:00:52;54113.19;;;-147.39;69.50
3524;BME280;1776;53.330;11.498;2022-11-12T07:03:17;54129.59;;;-147.39;69.56
3524;BME280;1776;53.330;11.498;2022-11-12T07:05:42;54139.84;;;-147.39;69.59
3524;BME280;1776;53.330;11.498;2022-11-12T07:08:08;54230.00;;;-147.39;69.31
3524;BME280;1776;53.330;11.498;2022-11-12T07:10:33;54113.19;;;-147.39;68.74
3524;BME280;1776;53.330;11.498;2022-11-12T07:12:58;54105.00;;;-147.39;69.23
3524;BME280;1776;53.330;11.498;2022-11-12T07:15:24;54125.50;;;-147.39;69.23
3524;BME280;1776;53.330;11.498;2022-11-12T07:17:49;54125.50;;;-147.39;69.49
3524;BME280;1776;53.330;11.498;2022-11-12T07:20:15;54113.19;;;-147.39;69.60
3524;BME280;1776;53.330;11.498;2022-11-12T07:22:40;54098.84;;;-147.39;70.08
3524;BME280;1776;53.330;11.498;2022-11-12T07:25:06;54115.25;;;-147.39;70.56
3524;BME280;1776;53.330;11.498;2022-11-12T07:27:31;54152.13;;;-147.39;69.92
3524;BME280;1776;53.330;11.498;2022-11-12T07:29:56;54115.25;;;-147.39;70.15
3524;BME280;1776;53.330;11.498;2022-11-12T07:32:22;54107.06;;;-147.39;69.81
3524;BME280;1776;53.330;11.498;2022-11-12T07:34:47;54125.50;;;-147.39;69.75
3524;BME280;1776;53.330;11.498;2022-11-12T07:37:14;54117.31;;;-147.39;69.57
3524;BME280;1776;53.330;11.498;2022-11-12T07:39:39;54113.19;;;-147.39;69.59
3524;BME280;1776;53.330;11.498;2022-11-12T07:42:04;54125.50;;;-147.39;69.88
3524;BME280;1776;53.330;11.498;2022-11-12T07:44:30;54072.22;;;-147.39;69.90
3524;BME280;1776;53.330;11.498;2022-11-12T07:46:55;54123.44;;;-147.39;70.11
3524;BME280;1776;53.330;11.498;2022-11-12T07:49:20;54121.41;;;-147.39;70.12
3524;BME280;1776;53.330;11.498;2022-11-12T07:51:46;54137.78;;;-147.39;70.49
3524;BME280;1776;53.330;11.498;2022-11-12T07:54:11;54127.53;;;-147.39;70.20
3524;BME280;1776;53.330;11.498;2022-11-12T07:56:37;54092.72;;;-147.39;69.69
3524;BME280;1776;53.330;11.498;2022-11-12T07:59:02;54156.22;;;-147.39;69.51
3524;BME280;1776;53.330;11.498;2022-11-12T08:01:39;54096.81;;;-147.39;68.69
3524;BME280;1776;53.330;11.498;2022-11-12T08:04:07;54111.16;;;-147.39;69.06
3524;BME280;1776;53.330;11.498;2022-11-12T08:06:33;54137.78;;;-147.39;68.71
3524;BME280;1776;53.330;11.498;2022-11-12T08:09:00;54088.63;;;-147.39;69.42
3524;BME280;1776;53.330;11.498;2022-11-12T08:11:26;54109.09;;;-147.39;69.28
3524;BME280;1776;53.330;11.498;2022-11-12T08:13:52;54230.00;;;-147.39;68.04
3524;BME280;1776;53.330;11.498;2022-11-12T08:16:17;54088.63;;;-147.39;67.24
3524;BME280;1776;53.330;11.498;2022-11-12T08:18:43;54088.63;;;-147.39;68.19
3524;BME280;1776;53.330;11.498;2022-11-12T08:21:11;54092.72;;;-147.39;70.09
3524;BME280;1776;53.330;11.498;2022-11-12T08:23:37;54117.31;;;-147.39;69.14
3524;BME280;1776;53.330;11.498;2022-11-12T08:26:04;54109.09;;;-147.39;68.15
3524;BME280;1776;53.330;11.498;2022-11-12T08:28:31;54092.72;;;-147.39;68.32
3524;BME280;1776;53.330;11.498;2022-11-12T08:31:04;54084.53;;;-147.39;67.02
3524;BME280;1776;53.330;11.498;2022-11-12T08:33:30;54064.03;;;-147.39;64.88
3524;BME280;1776;53.330;11.498;2022-11-12T08:35:56;54025.09;;;-147.39;60.29
3524;BME280;1776;53.330;11.498;2022-11-12T08:38:21;53973.88;;;-147.39;55.00
3524;BME280;1776;53.330;11.498;2022-11-12T08:40:47;54061.97;;;-147.39;49.22
3524;BME280;1776;53.330;11.498;2022-11-12T08:43:12;53910.38;;;-147.39;47.80
3524;BME280;1776;53.330;11.498;2022-11-12T08:45:39;53869.41;;;-147.39;45.80
3524;BME280;1776;53.330;11.498;2022-11-12T08:48:07;53853.00;;;-147.39;46.02
3524;BME280;1776;53.330;11.498;2022-11-12T08:50:34;53896.03;;;-147.39;46.34
3524;BME280;1776;53.330;11.498;2022-11-12T08:53:04;53912.41;;;-147.39;45.85
3524;BME280;1776;53.330;11.498;2022-11-12T08:55:30;53900.13;;;-147.39;46.44
3524;BME280;1776;53.330;11.498;2022-11-12T08:57:57;53879.63;;;-147.39;47.10
3524;BME280;1776;53.330;11.498;2022-11-12T09:00:29;53891.94;;;-147.39;48.04
3524;BME280;1776;53.330;11.498;2022-11-12T09:02:58;53912.41;;;-147.39;48.51
3524;BME280;1776;53.330;11.498;2022-11-12T09:05:24;53912.41;;;-147.39;46.99
3524;BME280;1776;53.330;11.498;2022-11-12T09:07:55;53916.50;;;-147.39;47.06
3524;BME280;1776;53.330;11.498;2022-11-12T09:10:21;53975.94;;;-147.39;49.10
3524;BME280;1776;53.330;11.498;2022-11-12T09:12:49;53924.72;;;-147.39;50.21
3524;BME280;1776;53.330;11.498;2022-11-12T09:15:15;53939.06;;;-147.39;50.57
3524;BME280;1776;53.330;11.498;2022-11-12T09:17:40;53910.38;;;-147.39;49.73
3524;BME280;1776;53.330;11.498;2022-11-12T09:20:06;53896.03;;;-147.39;48.68
3524;BME280;1776;53.330;11.498;2022-11-12T09:22:31;53898.06;;;-147.39;49.24
3524;BME280;1776;53.330;11.498;2022-11-12T09:24:57;53889.88;;;-147.39;48.58
3524;BME280;1776;53.330;11.498;2022-11-12T09:27:25;53922.66;;;-147.39;48.74
3524;BME280;1776;53.330;11.498;2022-11-12T09:29:50;53904.22;;;-147.39;49.95
3524;BME280;1776;53.330;11.498;2022-11-12T09:32:16;53947.25;;;-147.39;50.87
3524;BME280;1776;53.330;11.498;2022-11-12T09:34:41;53961.59;;;-147.39;50.95
3524;BME280;1776;53.330;11.498;2022-11-12T09:37:06;53955.44;;;-147.39;51.47
3524;BME280;1776;53.330;11.498;2022-11-12T09:39:31;53953.41;;;-147.39;52.05
3524;BME280;1776;53.330;11.498;2022-11-12T09:41:57;53930.84;;;-147.39;52.50
3524;BME280;1776;53.330;11.498;2022-11-12T09:44:22;53965.69;;;-147.39;54.94
3524;BME280;1776;53.330;11.498;2022-11-12T09:46:54;54064.03;;;-147.39;56.52
3524;BME280;1776;53.330;11.498;2022-11-12T09:52:01;54018.97;;;-147.39;58.48
3524;BME280;1776;53.330;11.498;2022-11-12T09:54:29;53984.13;;;-147.39;59.84
3524;BME280;1776;53.330;11.498;2022-11-12T09:56:55;53984.13;;;-147.39;59.85
3524;BME280;1776;53.330;11.498;2022-11-12T09:59:23;54000.50;;;-147.39;58.95
3524;BME280;1776;53.330;11.498;2022-11-12T10:02:01;53986.19;;;-147.39;58.93
3524;BME280;1776;53.330;11.498;2022-11-12T10:04:58;54021.00;;;-147.39;58.27
3524;BME280;1776;53.330;11.498;2022-11-12T10:10:13;53990.28;;;-147.39;57.79
3524;BME280;1776;53.330;11.498;2022-11-12T10:15:51;54004.63;;;-147.39;59.79
3524;BME280;1776;53.330;11.498;2022-11-12T10:18:49;54010.75;;;-147.39;60.87
3524;BME280;1776;53.330;11.498;2022-11-12T10:21:33;53986.19;;;-147.39;60.87
3524;BME280;1776;53.330;11.498;2022-11-12T10:24:00;54018.97;;;-147.39;60.68
3524;BME280;1776;53.330;11.498;2022-11-12T10:26:26;54025.09;;;-147.39;60.29
3524;BME280;1776;53.330;11.498;2022-11-12T10:29:02;54010.75;;;-147.39;60.62
3524;BME280;1776;53.330;11.498;2022-11-12T10:31:32;54012.81;;;-147.39;60.84
3524;BME280;1776;53.330;11.498;2022-11-12T10:36:40;54016.91;;;-147.39;61.00
3524;BME280;1776;53.330;11.498;2022-11-12T10:39:07;54014.84;;;-147.39;61.06
3524;BME280;1776;53.330;11.498;2022-11-12T10:41:33;54006.66;;;-147.39;60.95
3524;BME280;1776;53.330;11.498;2022-11-12T10:44:01;54002.56;;;-147.39;60.98
3524;BME280;1776;53.330;11.498;2022-11-12T10:46:32;54008.72;;;-147.39;61.12
3524;BME280;1776;53.330;11.498;2022-11-12T10:51:37;54010.75;;;-147.39;61.65
3524;BME280;1776;53.330;11.498;2022-11-12T10:54:29;53990.28;;;-147.39;61.48
3524;BME280;1776;53.330;11.498;2022-11-12T10:56:54;54008.72;;;-147.39;61.64
3524;BME280;1776;53.330;11.498;2022-11-12T10:59:24;54000.50;;;-147.39;61.71
3524;BME280;1776;53.330;11.498;2022-11-12T11:01:57;53982.06;;;-147.39;61.81
3524;BME280;1776;53.330;11.498;2022-11-12T11:04:36;54004.63;;;-147.39;61.89
3524;BME280;1776;53.330;11.498;2022-11-12T11:07:04;54004.63;;;-147.39;62.27
3524;BME280;1776;53.330;11.498;2022-11-12T11:09:31;54023.06;;;-147.39;62.35
3524;BME280;1776;53.330;11.498;2022-11-12T11:11:56;53998.47;;;-147.39;62.39
3524;BME280;1776;53.330;11.498;2022-11-12T11:16:55;54018.97;;;-147.39;63.31
3524;BME280;1776;53.330;11.498;2022-11-12T11:19:37;54016.91;;;-147.39;63.29
3524;BME280;1776;53.330;11.498;2022-11-12T11:25:05;54006.66;;;-147.39;63.10
3524;BME280;1776;53.330;11.498;2022-11-12T11:27:40;54016.91;;;-147.39;63.01
3524;BME280;1776;53.330;11.498;2022-11-12T11:30:28;54027.16;;;-147.39;62.90
3524;BME280;1776;53.330;11.498;2022-11-12T11:36:11;54002.56;;;-147.39;62.21
3524;BME280;1776;53.330;11.498;2022-11-12T11:38:56;54018.97;;;-147.39;62.21
3524;BME280;1776;53.330;11.498;2022-11-12T11:41:53;54014.84;;;-147.39;62.42
3524;BME280;1776;53.330;11.498;2022-11-12T11:52:54;54002.56;;;-147.39;61.53
3524;BME280;1776;53.330;11.498;2022-11-12T11:56:03;53988.22;;;-147.39;61.18
3524;BME280;1776;53.330;11.498;2022-11-12T11:58:40;53990.28;;;-147.39;61.09
3524;BME280;1776;53.330;11.498;2022-11-12T12:06:23;54035.34;;;-147.39;61.04
3524;BME280;1776;53.330;11.498;2022-11-12T12:11:38;53988.22;;;-147.39;60.69
3524;BME280;1776;53.330;11.498;2022-11-12T12:17:05;53982.06;;;-147.39;61.47
3524;BME280;1776;53.330;11.498;2022-11-12T12:22:34;53980.03;;;-147.39;61.80
3524;BME280;1776;53.330;11.498;2022-11-12T12:25:11;53994.38;;;-147.39;61.46
3524;BME280;1776;53.330;11.498;2022-11-12T12:27:48;54004.63;;;-147.39;61.22
3524;BME280;1776;53.330;11.498;2022-11-12T12:30:20;53980.03;;;-147.39;61.08
3524;BME280;1776;53.330;11.498;2022-11-12T12:32:52;53994.38;;;-147.39;60.81
3524;BME280;1776;53.330;11.498;2022-11-12T12:35:36;53988.22;;;-147.39;60.64
3524;BME280;1776;53.330;11.498;2022-11-12T12:38:17;53945.19;;;-147.39;60.82
3524;BME280;1776;53.330;11.498;2022-11-12T12:40:45;53994.38;;;-147.39;60.62
3524;BME280;1776;53.330;11.498;2022-11-12T12:43:24;53988.22;;;-147.39;60.45
3524;BME280;1776;53.330;11.498;2022-11-12T12:45:50;53986.19;;;-147.39;60.05
3524;BME280;1776;53.330;11.498;2022-11-12T12:48:26;53967.72;;;-147.39;60.33
3524;BME280;1776;53.330;11.498;2022-11-12T12:50:52;53988.22;;;-147.39;59.95
3524;BME280;1776;53.330;11.498;2022-11-12T12:55:50;53984.13;;;-147.39;59.74
3524;BME280;1776;53.330;11.498;2022-11-12T12:58:28;53982.06;;;-147.39;59.75
3524;BME280;1776;53.330;11.498;2022-11-12T13:01:27;53990.28;;;-147.39;59.97
3524;BME280;1776;53.330;11.498;2022-11-12T13:04:01;53963.63;;;-147.39;59.74
3524;BME280;1776;53.330;11.498;2022-11-12T13:17:01;53963.63;;;-147.39;59.46
3524;BME280;1776;53.330;11.498;2022-11-12T13:30:08;53982.06;;;-147.39;60.12
3524;BME280;1776;53.330;11.498;2022-11-12T13:37:50;53951.34;;;-147.39;60.45
3524;BME280;1776;53.330;11.498;2022-11-12T13:43:06;53986.19;;;-147.39;61.24
3524;BME280;1776;53.330;11.498;2022-11-12T13:45:39;54070.19;;;-147.39;60.62
3524;BME280;1776;53.330;11.498;2022-11-12T13:48:07;53957.50;;;-147.39;60.46
3524;BME280;1776;53.330;11.498;2022-11-12T13:50:36;53945.19;;;-147.39;60.87
3524;BME280;1776;53.330;11.498;2022-11-12T13:53:08;53982.06;;;-147.39;60.54
3524;BME280;1776;53.330;11.498;2022-11-12T13:55:35;53965.69;;;-147.39;60.06
3524;BME280;1776;53.330;11.498;2022-11-12T13:58:00;53957.50;;;-147.39;59.93
3524;BME280;1776;53.330;11.498;2022-11-12T14:00:27;53947.25;;;-147.39;59.99
3524;BME280;1776;53.330;11.498;2022-11-12T14:03:01;53959.53;;;-147.39;60.19
3524;BME280;1776;53.330;11.498;2022-11-12T14:05:28;53984.13;;;-147.39;60.04
3524;BME280;1776;53.330;11.498;2022-11-12T14:11:21;53975.94;;;-147.39;60.40
3524;BME280;1776;53.330;11.498;2022-11-12T14:22:17;54004.63;;;-147.39;60.89
3524;BME280;1776;53.330;11.498;2022-11-12T14:24:44;53977.97;;;-147.39;61.04
3524;BME280;1776;53.330;11.498;2022-11-12T14:27:31;53961.59;;;-147.39;61.06